Time;durP1;ratioP1;P1;durP2;ratioP2;P2;SDS_P1;SDS_P2;PMS_P1;PMS_P2;Temp;Humidity;BMP_temperature;BMP_pressure;BME280_temperature;BME280_humidity;BME280_pressure;Samples;Min_cycle;Max_cycle;Signal;HPM_P1;HPM_P2
2023/08/28 00:01:00;;;;;;;2.75;1.38;;;12.80;99.90;;;;;;4995003;28;20781;-65
2023/08/28 00:03:26;;;;;;;6.05;1.42;;;12.80;99.90;;;;;;4995467;28;20347;-65
2023/08/28 00:05:52;;;;;;;6.38;1.63;;;12.90;99.90;;;;;;4995031;28;20272;-65
2023/08/28 00:08:17;;;;;;;3.88;1.73;;;12.80;99.90;;;;;;5029069;28;20053;-65
2023/08/28 00:10:43;;;;;;;4.30;1.70;;;12.70;99.90;;;;;;4994592;28;20072;-65
2023/08/28 00:13:09;;;;;;;4.90;1.77;;;12.80;99.90;;;;;;5011736;28;20102;-65
2023/08/28 00:15:34;;;;;;;5.20;1.80;;;12.70;99.90;;;;;;5011714;28;20044;-65
2023/08/28 00:18:00;;;;;;;3.80;1.20;;;12.60;99.90;;;;;;5011352;28;20696;-65
2023/08/28 00:20:26;;;;;;;6.53;1.60;;;12.70;99.90;;;;;;4994336;28;20118;-65
2023/08/28 00:22:51;;;;;;;4.47;1.40;;;12.80;99.90;;;;;;4995224;28;20045;-65
2023/08/28 00:25:17;;;;;;;4.72;1.85;;;12.60;99.90;;;;;;5029231;28;20033;-64
2023/08/28 00:27:43;;;;;;;4.60;1.90;;;12.60;99.90;;;;;;4994713;28;20033;-66
2023/08/28 00:30:10;;;;;;;4.43;1.90;;;12.50;99.90;;;;;;5028954;28;20396;-65
2023/08/28 00:32:35;;;;;;;6.65;2.00;;;12.50;99.90;;;;;;5010708;28;20076;-65
2023/08/28 00:35:01;;;;;;;6.28;2.75;;;12.50;99.90;;;;;;5029743;28;20048;-65
2023/08/28 00:37:27;;;;;;;5.97;2.28;;;12.50;99.90;;;;;;4994495;28;20037;-65
2023/08/28 00:39:52;;;;;;;7.55;2.75;;;12.30;99.90;;;;;;5011497;28;20534;-65
2023/08/28 00:42:18;;;;;;;10.05;2.65;;;12.40;99.90;;;;;;5011756;28;20563;-65
2023/08/28 00:44:44;;;;;;;5.18;2.55;;;12.30;99.90;;;;;;4976397;28;20040;-65
2023/08/28 00:47:10;;;;;;;9.05;2.60;;;12.50;99.90;;;;;;4994642;28;20053;-65
2023/08/28 00:49:36;;;;;;;4.40;2.40;;;12.30;99.90;;;;;;5010597;28;20049;-65
2023/08/28 00:52:03;;;;;;;5.80;2.55;;;12.30;99.90;;;;;;5010864;28;20122;-65
2023/08/28 00:54:28;;;;;;;5.38;2.60;;;12.40;99.90;;;;;;4993480;28;20037;-65
2023/08/28 00:56:55;;;;;;;5.13;2.47;;;12.50;99.90;;;;;;4983168;28;20287;-65
2023/08/28 00:59:21;;;;;;;5.93;2.30;;;12.60;99.90;;;;;;4994731;28;20438;-65
2023/08/28 01:01:47;;;;;;;6.13;2.22;;;12.60;99.90;;;;;;4969818;28;20043;-65
2023/08/28 01:04:12;;;;;;;7.47;2.10;;;12.50;99.90;;;;;;4994406;28;20142;-65
2023/08/28 01:07:01;;;;;;;5.75;1.80;;;12.60;99.90;;;;;;4977960;28;20442;-65
2023/08/28 01:10:11;;;;;;;2.92;1.83;;;12.60;99.90;;;;;;5010867;28;20335;-65
2023/08/28 01:12:55;;;;;;;3.25;1.90;;;12.90;99.90;;;;;;5011022;28;20041;-64
2023/08/28 01:15:23;;;;;;;3.65;2.17;;;12.70;99.90;;;;;;4986307;28;20049;-65
2023/08/28 01:18:00;;;;;;;5.35;2.20;;;12.80;99.90;;;;;;4992129;28;20079;-65
2023/08/28 01:20:28;;;;;;;6.32;2.45;;;12.80;99.90;;;;;;5027124;28;20033;-67
2023/08/28 01:22:57;;;;;;;5.20;2.08;;;12.60;99.90;;;;;;5010751;28;20069;-65
2023/08/28 01:25:24;;;;;;;4.50;1.92;;;12.70;99.90;;;;;;5010849;28;20619;-65
2023/08/28 01:27:52;;;;;;;2.92;1.92;;;12.60;99.90;;;;;;5010193;28;20049;-65
2023/08/28 01:30:18;;;;;;;4.88;1.80;;;12.60;99.90;;;;;;5011365;28;20045;-64
2023/08/28 01:32:45;;;;;;;3.90;1.70;;;12.60;99.90;;;;;;5014221;28;20518;-65
2023/08/28 01:35:14;;;;;;;5.35;1.70;;;12.60;99.90;;;;;;4993620;28;20044;-65
2023/08/28 01:38:05;;;;;;;4.60;1.60;;;12.70;99.90;;;;;;4997035;28;20292;-64
2023/08/28 01:40:44;;;;;;;2.38;2.15;;;12.60;99.90;;;;;;5014540;28;20521;-65
2023/08/28 01:43:13;;;;;;;3.20;1.40;;;12.50;99.90;;;;;;5013627;28;20041;-64
2023/08/28 01:45:39;;;;;;;2.58;1.10;;;12.60;99.90;;;;;;5013552;28;20068;-64
2023/08/28 01:48:06;;;;;;;3.90;1.27;;;12.60;99.90;;;;;;4996219;28;20045;-64
2023/08/28 01:50:32;;;;;;;3.92;1.55;;;12.60;99.90;;;;;;5032343;28;20084;-65
2023/08/28 01:52:57;;;;;;;3.10;1.30;;;12.50;99.90;;;;;;4983042;28;20270;-65
2023/08/28 01:55:40;;;;;;;3.70;1.50;;;12.60;99.90;;;;;;4981505;28;21089;-64
2023/08/28 01:58:05;;;;;;;4.18;1.45;;;12.60;99.90;;;;;;5013375;28;20037;-65
2023/08/28 02:00:31;;;;;;;5.13;1.60;;;12.70;99.90;;;;;;4997348;28;20033;-65
2023/08/28 02:02:57;;;;;;;4.60;1.58;;;12.70;99.90;;;;;;5013863;28;20053;-64
2023/08/28 02:05:22;;;;;;;5.60;1.73;;;12.60;99.90;;;;;;4995411;28;20131;-65
2023/08/28 02:07:48;;;;;;;5.10;2.10;;;12.70;99.90;;;;;;4997247;28;20645;-65
2023/08/28 02:10:14;;;;;;;4.10;1.85;;;12.70;99.90;;;;;;4997284;28;20392;-65
2023/08/28 02:12:39;;;;;;;6.32;1.55;;;12.50;99.90;;;;;;5031306;28;20435;-65
2023/08/28 02:15:05;;;;;;;2.72;1.45;;;12.60;99.90;;;;;;4996803;28;20041;-65
2023/08/28 02:17:31;;;;;;;7.05;1.65;;;12.70;99.90;;;;;;5014494;28;20672;-65
2023/08/28 02:19:57;;;;;;;3.22;1.50;;;12.60;99.90;;;;;;4966698;28;20442;-65
2023/08/28 02:22:22;;;;;;;6.05;1.60;;;12.70;99.90;;;;;;4986371;28;20662;-66
2023/08/28 02:24:49;;;;;;;5.10;1.92;;;12.70;99.90;;;;;;5013649;28;20114;-65
2023/08/28 02:27:15;;;;;;;4.80;1.67;;;12.60;99.90;;;;;;5031451;28;20138;-65
2023/08/28 02:29:40;;;;;;;4.05;1.77;;;12.60;99.90;;;;;;5013012;28;20127;-66
2023/08/28 02:32:07;;;;;;;3.45;1.67;;;12.60;99.90;;;;;;4996632;28;20041;-66
2023/08/28 02:34:33;;;;;;;3.30;1.58;;;12.60;99.90;;;;;;4996698;28;20049;-65
2023/08/28 02:36:58;;;;;;;3.65;1.90;;;12.80;99.90;;;;;;4997008;28;20056;-65
2023/08/28 02:39:24;;;;;;;3.60;1.25;;;12.60;99.90;;;;;;5013433;28;20136;-66
2023/08/28 02:41:50;;;;;;;3.88;1.45;;;12.50;99.90;;;;;;5012438;28;20045;-65
2023/08/28 02:44:15;;;;;;;3.78;1.27;;;12.60;99.90;;;;;;5013262;28;20296;-65
2023/08/28 02:46:41;;;;;;;3.10;1.40;;;12.60;99.90;;;;;;5013284;28;20084;-65
2023/08/28 02:49:07;;;;;;;7.05;1.40;;;12.60;99.90;;;;;;5012189;28;20318;-65
2023/08/28 02:51:33;;;;;;;5.28;1.92;;;12.60;99.90;;;;;;4996922;28;20048;-65
2023/08/28 02:53:58;;;;;;;3.95;1.55;;;12.70;99.90;;;;;;5013177;28;20136;-65
2023/08/28 02:56:26;;;;;;;2.88;1.88;;;12.60;99.90;;;;;;4979787;28;20534;-66
2023/08/28 02:58:53;;;;;;;3.53;1.77;;;12.60;99.90;;;;;;5012404;28;20041;-65
2023/08/28 03:01:20;;;;;;;3.63;2.63;;;12.60;99.90;;;;;;4995873;28;20130;-65
2023/08/28 03:03:47;;;;;;;3.22;2.60;;;12.70;99.90;;;;;;4996102;28;20045;-66
2023/08/28 03:06:13;;;;;;;7.75;2.88;;;12.90;99.90;;;;;;5013037;28;20390;-65
2023/08/28 03:08:39;;;;;;;3.80;2.35;;;12.70;99.90;;;;;;5012073;28;20116;-65
2023/08/28 03:11:05;;;;;;;4.82;2.67;;;12.80;99.90;;;;;;5012492;28;20718;-65
2023/08/28 03:13:31;;;;;;;5.63;2.53;;;12.80;99.90;;;;;;4995458;28;20439;-65
2023/08/28 03:15:56;;;;;;;4.22;3.33;;;12.50;99.90;;;;;;5011204;28;20098;-65
2023/08/28 03:18:22;;;;;;;7.40;3.50;;;12.60;99.90;;;;;;5012761;28;20837;-66
2023/08/28 03:20:48;;;;;;;6.40;3.20;;;12.50;99.90;;;;;;4980327;28;20421;-65
2023/08/28 03:23:14;;;;;;;4.00;3.17;;;12.70;99.90;;;;;;5030663;28;20084;-66
2023/08/28 03:25:39;;;;;;;6.32;3.03;;;12.50;99.90;;;;;;5012307;28;20151;-65
2023/08/28 03:28:07;;;;;;;5.22;3.17;;;12.60;99.90;;;;;;5012373;28;20450;-66
2023/08/28 03:30:33;;;;;;;6.28;3.22;;;12.70;99.90;;;;;;4995706;28;20041;-66
2023/08/28 03:32:59;;;;;;;5.88;2.88;;;12.50;99.90;;;;;;4993615;28;20458;-66
2023/08/28 03:35:25;;;;;;;5.82;3.25;;;12.40;99.90;;;;;;5012249;28;20045;-65
2023/08/28 03:37:51;;;;;;;5.18;3.25;;;12.50;99.90;;;;;;5011804;28;20044;-65
2023/08/28 03:40:16;;;;;;;4.97;3.45;;;12.50;99.90;;;;;;4995410;28;20033;-65
2023/08/28 03:42:42;;;;;;;4.82;3.70;;;12.30;99.90;;;;;;4996102;28;20684;-65
2023/08/28 03:45:08;;;;;;;4.47;3.30;;;12.40;99.90;;;;;;5011243;28;20047;-65
2023/08/28 03:47:34;;;;;;;4.88;3.33;;;12.20;99.90;;;;;;5012000;28;20381;-65
2023/08/28 03:50:00;;;;;;;3.50;3.20;;;12.20;99.90;;;;;;5012025;28;20056;-65
2023/08/28 03:52:25;;;;;;;5.88;3.28;;;12.30;99.90;;;;;;5012081;28;20037;-64
2023/08/28 03:54:51;;;;;;;4.28;3.28;;;12.20;99.90;;;;;;5011746;28;20193;-65
2023/08/28 03:57:17;;;;;;;4.60;3.40;;;12.10;99.90;;;;;;4995775;28;20076;-65
2023/08/28 03:59:43;;;;;;;6.57;3.00;;;12.00;99.90;;;;;;5011849;28;20372;-65
2023/08/28 04:02:09;;;;;;;6.00;3.03;;;12.20;99.90;;;;;;5011078;28;20029;-65
2023/08/28 04:04:34;;;;;;;4.93;2.85;;;12.10;99.90;;;;;;4994843;28;20104;-65
2023/08/28 04:07:03;;;;;;;4.93;3.33;;;12.00;99.90;;;;;;5011577;28;20114;-65
2023/08/28 04:09:29;;;;;;;6.72;3.30;;;12.10;99.90;;;;;;5011523;28;20065;-65
2023/08/28 04:11:56;;;;;;;6.53;2.88;;;12.00;99.90;;;;;;5030056;28;20053;-64
2023/08/28 04:14:22;;;;;;;4.72;2.78;;;11.90;99.90;;;;;;5009990;28;20036;-65
2023/08/28 04:16:49;;;;;;;6.75;2.80;;;11.90;99.90;;;;;;4995360;28;20443;-65
2023/08/28 04:19:15;;;;;;;5.45;2.75;;;12.00;99.90;;;;;;5011067;28;20041;-65
2023/08/28 04:21:40;;;;;;;3.88;2.97;;;11.80;99.90;;;;;;4995764;28;20048;-64
2023/08/28 04:24:07;;;;;;;5.47;3.20;;;11.80;99.90;;;;;;5011559;28;20041;-65
2023/08/28 04:26:33;;;;;;;5.18;3.05;;;11.80;99.90;;;;;;5011300;28;20292;-65
2023/08/28 04:28:59;;;;;;;5.70;3.30;;;11.90;99.90;;;;;;4994293;28;20253;-65
2023/08/28 04:31:24;;;;;;;5.38;3.90;;;11.80;99.90;;;;;;4994096;28;20048;-65
2023/08/28 04:33:50;;;;;;;4.80;3.40;;;11.80;99.90;;;;;;5011387;28;20041;-64
2023/08/28 04:36:16;;;;;;;9.50;3.88;;;11.60;99.90;;;;;;5011610;28;20258;-64
2023/08/28 04:38:41;;;;;;;6.97;4.03;;;11.60;99.90;;;;;;5010896;28;20044;-64
2023/08/28 04:41:07;;;;;;;6.78;3.83;;;11.60;99.90;;;;;;5028638;28;20033;-65
2023/08/28 04:43:33;;;;;;;6.55;3.60;;;11.70;99.90;;;;;;4988015;28;20438;-64
2023/08/28 04:45:58;;;;;;;9.15;4.57;;;11.50;99.90;;;;;;5028232;28;20697;-64
2023/08/28 04:48:24;;;;;;;6.55;4.45;;;11.50;99.90;;;;;;4981971;28;20434;-64
2023/08/28 04:50:51;;;;;;;6.57;4.97;;;11.70;99.90;;;;;;4995071;28;20056;-64
2023/08/28 04:53:17;;;;;;;7.45;4.10;;;11.50;99.90;;;;;;4988571;28;20316;-64
2023/08/28 04:55:43;;;;;;;7.93;4.63;;;11.50;99.90;;;;;;5011700;28;20053;-64
2023/08/28 04:58:09;;;;;;;6.07;4.40;;;11.60;99.90;;;;;;5010489;28;20596;-64
2023/08/28 05:00:36;;;;;;;8.88;4.65;;;11.70;99.90;;;;;;5028731;28;20364;-64
2023/08/28 05:03:02;;;;;;;5.90;4.13;;;11.50;99.90;;;;;;5010952;28;20081;-64
2023/08/28 05:05:27;;;;;;;4.97;4.28;;;11.50;99.90;;;;;;5005123;28;20322;-64
2023/08/28 05:07:53;;;;;;;8.45;4.40;;;11.50;99.90;;;;;;5014039;28;20463;-64
2023/08/28 05:10:19;;;;;;;4.82;4.20;;;11.60;99.90;;;;;;4987156;28;20091;-64
2023/08/28 05:12:44;;;;;;;7.88;4.80;;;11.70;99.90;;;;;;5015252;28;20082;-64
2023/08/28 05:15:10;;;;;;;5.32;4.82;;;11.60;99.90;;;;;;5033018;28;20045;-63
2023/08/28 05:17:36;;;;;;;8.38;4.78;;;11.80;99.90;;;;;;5014011;28;20029;-64
2023/08/28 05:20:02;;;;;;;8.02;4.55;;;11.60;99.90;;;;;;5015551;28;20044;-64
2023/08/28 05:22:27;;;;;;;6.63;4.70;;;11.60;99.90;;;;;;5033615;28;20041;-63
2023/08/28 05:24:53;;;;;;;7.70;4.90;;;11.50;99.90;;;;;;5015478;28;20045;-64
2023/08/28 05:27:19;;;;;;;9.38;4.95;;;11.80;99.90;;;;;;4993219;28;20033;-64
2023/08/28 05:29:48;;;;;;;8.45;5.10;;;11.80;99.90;;;;;;5013464;28;20550;-65
2023/08/28 05:32:15;;;;;;;9.88;5.25;;;11.70;99.90;;;;;;5016768;28;20465;-65
2023/08/28 05:34:41;;;;;;;5.18;4.50;;;11.70;99.90;;;;;;5000559;28;20100;-64
2023/08/28 05:37:06;;;;;;;5.72;4.35;;;11.80;99.90;;;;;;4982122;28;20033;-65
2023/08/28 05:39:32;;;;;;;5.35;3.95;;;12.20;99.90;;;;;;5011544;28;20162;-66
2023/08/28 05:41:57;;;;;;;6.70;4.05;;;12.20;99.90;;;;;;4997465;28;20503;-64
2023/08/28 05:44:23;;;;;;;5.63;3.28;;;12.50;99.90;;;;;;5031753;28;20335;-65
2023/08/28 05:46:50;;;;;;;5.50;2.13;;;12.70;99.90;;;;;;4993056;28;20524;-64
2023/08/28 05:49:15;;;;;;;4.72;1.70;;;13.20;99.90;;;;;;4996815;28;20264;-65
2023/08/28 05:51:41;;;;;;;4.15;1.60;;;13.50;99.90;;;;;;5013933;28;20037;-63
2023/08/28 05:54:07;;;;;;;4.45;1.77;;;13.90;99.90;;;;;;4997628;28;20103;-63
2023/08/28 05:56:32;;;;;;;3.83;1.60;;;13.80;99.90;;;;;;5014891;28;20088;-64
2023/08/28 05:58:58;;;;;;;3.22;1.40;;;13.90;99.90;;;;;;4979334;28;20128;-64
2023/08/28 06:01:24;;;;;;;3.25;1.55;;;13.80;99.90;;;;;;5014028;28;20307;-64
2023/08/28 06:03:55;;;;;;;3.65;1.55;;;13.60;99.90;;;;;;4998349;28;20068;-63
2023/08/28 06:06:24;;;;;;;5.15;1.80;;;13.70;99.90;;;;;;5000006;28;20201;-64
2023/08/28 06:08:50;;;;;;;5.20;2.00;;;13.60;99.90;;;;;;4994498;28;20057;-63
2023/08/28 06:11:16;;;;;;;4.80;1.60;;;13.70;99.90;;;;;;5012164;28;20118;-63
2023/08/28 06:13:41;;;;;;;6.15;1.67;;;13.90;99.90;;;;;;4995308;28;20518;-63
2023/08/28 06:16:07;;;;;;;3.22;1.42;;;13.70;99.90;;;;;;5013273;28;20044;-64
2023/08/28 06:18:33;;;;;;;4.05;1.70;;;13.80;99.90;;;;;;4979523;28;20555;-63
2023/08/28 06:20:58;;;;;;;4.35;1.40;;;14.00;99.90;;;;;;4996387;28;20223;-64
2023/08/28 06:23:24;;;;;;;6.05;1.63;;;14.00;99.90;;;;;;5011988;28;20391;-64
2023/08/28 06:25:50;;;;;;;2.78;1.80;;;13.90;99.90;;;;;;5011884;28;20404;-63
2023/08/28 06:28:15;;;;;;;4.63;1.20;;;14.00;99.90;;;;;;4995873;28;20132;-64
2023/08/28 06:30:44;;;;;;;4.65;1.00;;;14.30;99.90;;;;;;4995574;28;20308;-63
2023/08/28 06:33:10;;;;;;;2.25;0.70;;;14.80;99.90;;;;;;5012042;28;20463;-64
2023/08/28 06:35:36;;;;;;;3.10;0.73;;;15.40;99.90;;;;;;4995904;28;20048;-64
2023/08/28 06:38:01;;;;;;;3.05;0.60;;;15.60;99.90;;;;;;4994329;28;20045;-63
2023/08/28 06:40:27;;;;;;;2.63;0.50;;;15.70;99.90;;;;;;5010626;28;20038;-63
2023/08/28 06:42:53;;;;;;;3.55;0.45;;;16.00;99.90;;;;;;4993099;28;20230;-64
2023/08/28 06:45:18;;;;;;;1.65;0.40;;;16.20;99.90;;;;;;5009049;28;20072;-64
2023/08/28 06:47:44;;;;;;;4.97;1.13;;;16.50;99.90;;;;;;4977293;28;20102;-64
2023/08/28 06:50:10;;;;;;;2.10;0.30;;;16.80;99.90;;;;;;4994406;28;20152;-63
2023/08/28 06:52:36;;;;;;;2.25;0.30;;;17.30;99.90;;;;;;4994131;28;20088;-64
2023/08/28 06:55:02;;;;;;;2.20;0.30;;;17.60;99.90;;;;;;5009218;28;20042;-64
2023/08/28 06:57:28;;;;;;;2.92;0.28;;;17.80;99.90;;;;;;4980038;28;20052;-63
2023/08/28 06:59:54;;;;;;;3.05;0.40;;;18.00;99.90;;;;;;4992890;28;20337;-67
2023/08/28 07:02:19;;;;;;;2.38;0.32;;;18.00;99.90;;;;;;4977478;28;20042;-64
2023/08/28 07:04:46;;;;;;;4.40;0.35;;;17.90;99.90;;;;;;5010059;28;20448;-64
2023/08/28 07:07:15;;;;;;;2.38;0.30;;;18.00;99.90;;;;;;5008981;28;20591;-64
2023/08/28 07:09:41;;;;;;;4.15;0.30;;;18.30;99.90;;;;;;4992126;28;20091;-63
2023/08/28 07:12:07;;;;;;;4.30;0.40;;;18.40;99.90;;;;;;4991351;28;20591;-64
2023/08/28 07:14:32;;;;;;;2.00;0.40;;;18.20;99.90;;;;;;4993137;28;20243;-63
2023/08/28 07:16:58;;;;;;;2.85;0.43;;;18.40;99.90;;;;;;5009856;28;20049;-64
2023/08/28 07:19:24;;;;;;;2.20;0.32;;;18.60;99.90;;;;;;4993378;28;20246;-64
2023/08/28 07:21:49;;;;;;;3.75;0.43;;;18.70;99.90;;;;;;4993570;28;20041;-64
2023/08/28 07:24:16;;;;;;;2.30;0.50;;;19.00;99.90;;;;;;4993153;28;20049;-64
2023/08/28 07:26:42;;;;;;;2.20;0.40;;;19.00;99.90;;;;;;5009870;28;20069;-64
2023/08/28 07:29:07;;;;;;;3.22;0.30;;;19.10;99.90;;;;;;4992973;28;20469;-64
2023/08/28 07:31:33;;;;;;;2.08;0.50;;;19.20;99.90;;;;;;5009818;28;20272;-64
2023/08/28 07:34:03;;;;;;;2.95;0.43;;;19.60;99.90;;;;;;4993346;28;21074;-64
2023/08/28 07:36:29;;;;;;;2.45;0.30;;;19.80;99.90;;;;;;5008644;28;20055;-65
2023/08/28 07:38:55;;;;;;;2.40;0.30;;;20.00;99.90;;;;;;5009287;28;20045;-64
2023/08/28 07:41:20;;;;;;;2.83;0.30;;;20.20;99.90;;;;;;5009225;28;20126;-64
2023/08/28 07:43:46;;;;;;;2.55;0.50;;;20.10;99.90;;;;;;4991206;28;20124;-64
2023/08/28 07:46:12;;;;;;;2.30;0.20;;;20.30;99.90;;;;;;5008423;28;20408;-64
2023/08/28 07:48:38;;;;;;;4.60;0.30;;;20.20;99.90;;;;;;5008783;28;20575;-64
2023/08/28 07:51:04;;;;;;;2.85;0.20;;;20.30;99.90;;;;;;5008008;28;20045;-64
2023/08/28 07:53:30;;;;;;;1.73;0.20;;;20.60;99.90;;;;;;5007935;28;20286;-65
2023/08/28 07:55:55;;;;;;;1.48;0.40;;;20.70;99.90;;;;;;5007975;28;20148;-64
2023/08/28 07:58:21;;;;;;;1.40;0.30;;;20.90;99.90;;;;;;5007960;28;20524;-63
2023/08/28 08:00:47;;;;;;;2.70;0.30;;;21.10;99.90;;;;;;5009881;28;20037;-63
2023/08/28 08:03:12;;;;;;;3.10;0.30;;;21.20;99.90;;;;;;5007757;28;20049;-64
2023/08/28 08:05:38;;;;;;;2.47;0.20;;;21.30;99.90;;;;;;5010148;28;20041;-64
2023/08/28 08:08:04;;;;;;;2.00;0.20;;;21.60;99.90;;;;;;5009764;28;20041;-63
2023/08/28 08:10:30;;;;;;;1.98;0.30;;;21.90;99.90;;;;;;5031020;28;20198;-65
2023/08/28 08:12:56;;;;;;;1.85;0.20;;;21.80;99.90;;;;;;5029422;28;20041;-63
2023/08/28 08:15:21;;;;;;;1.35;0.20;;;21.50;99.90;;;;;;5011415;28;20112;-63
2023/08/28 08:17:47;;;;;;;1.67;0.20;;;21.60;99.90;;;;;;5012250;28;20044;-63
2023/08/28 08:20:13;;;;;;;2.28;0.30;;;21.60;99.90;;;;;;5032015;28;20679;-63
2023/08/28 08:22:40;;;;;;;4.03;0.30;;;21.70;99.90;;;;;;4990493;28;20044;-64
2023/08/28 08:25:07;;;;;;;1.35;0.30;;;22.20;99.90;;;;;;4980948;28;20120;-63
2023/08/28 08:27:33;;;;;;;4.53;0.20;;;22.60;99.90;;;;;;5012875;28;20104;-63
2023/08/28 08:29:59;;;;;;;2.25;0.20;;;22.80;99.90;;;;;;5030733;28;20056;-63
2023/08/28 08:32:24;;;;;;;1.33;0.30;;;22.80;99.90;;;;;;5012369;28;20041;-63
2023/08/28 08:34:51;;;;;;;2.13;0.20;;;21.80;99.90;;;;;;4982261;28;20049;-63
2023/08/28 08:37:17;;;;;;;4.30;0.50;;;20.70;99.90;;;;;;5029111;28;20151;-63
2023/08/28 08:39:42;;;;;;;2.83;0.30;;;20.00;99.90;;;;;;5011823;28;20640;-63
2023/08/28 08:42:08;;;;;;;4.10;0.40;;;19.60;99.90;;;;;;5015174;28;20263;-63
2023/08/28 08:44:35;;;;;;;4.30;0.50;;;19.30;99.90;;;;;;5017988;28;20049;-63
2023/08/28 08:47:04;;;;;;;3.28;0.40;;;19.20;99.90;;;;;;5001972;28;20084;-63
2023/08/28 08:49:34;;;;;;;2.97;0.30;;;19.00;99.90;;;;;;5037109;28;20136;-63
2023/08/28 08:52:05;;;;;;;2.38;0.20;;;19.10;99.90;;;;;;5034501;28;20064;-63
2023/08/28 08:54:39;;;;;;;2.35;0.20;;;19.60;99.90;;;;;;5015937;28;20273;-63
2023/08/28 08:57:25;;;;;;;0.80;0.30;;;20.00;99.90;;;;;;4999439;28;20066;-63
2023/08/28 08:59:52;;;;;;;2.50;0.13;;;20.40;99.90;;;;;;5016046;28;20098;-64
2023/08/28 09:02:18;;;;;;;2.10;0.20;;;20.20;99.90;;;;;;5016426;28;20771;-64
2023/08/28 09:04:44;;;;;;;0.93;0.10;;;19.90;99.90;;;;;;5016265;28;20036;-64
2023/08/28 09:07:10;;;;;;;2.53;0.30;;;19.40;99.90;;;;;;5015766;28;20118;-64
2023/08/28 09:09:36;;;;;;;3.50;0.10;;;19.60;99.90;;;;;;5016590;28;20107;-64
2023/08/28 09:12:02;;;;;;;1.52;0.10;;;20.00;91.60;;;;;;5015738;28;20077;-64
2023/08/28 09:14:28;;;;;;;0.50;0.10;;;20.80;71.30;;;;;;5034360;28;20140;-64
2023/08/28 09:16:54;;;;;;;0.50;0.10;;;21.20;46.40;;;;;;4999622;28;20044;-65
2023/08/28 09:19:20;;;;;;;0.98;0.13;;;22.00;69.00;;;;;;5015365;28;20049;-64
2023/08/28 09:21:47;;;;;;;2.97;0.20;;;22.50;27.80;;;;;;5016088;28;20037;-65
2023/08/28 09:24:13;;;;;;;2.33;0.20;;;22.80;24.40;;;;;;5034303;28;20106;-64
2023/08/28 09:26:38;;;;;;;1.95;0.20;;;22.30;1.00;;;;;;5000125;28;20040;-65
2023/08/28 09:29:08;;;;;;;0.82;0.10;;;22.40;1.00;;;;;;5015518;28;20857;-64
2023/08/28 09:31:36;;;;;;;1.23;0.10;;;22.70;1.00;;;;;;5015198;28;20048;-64
2023/08/28 09:34:03;;;;;;;1.85;0.10;;;22.60;1.00;;;;;;5015585;28;20045;-64
2023/08/28 09:36:41;;;;;;;1.38;0.15;;;22.70;1.00;;;;;;5015799;28;20482;-64
2023/08/28 09:39:07;;;;;;;1.88;0.13;;;23.00;1.00;;;;;;5014990;28;20101;-63
2023/08/28 09:41:43;;;;;;;1.50;0.20;;;23.20;1.00;;;;;;5014961;28;20041;-64
2023/08/28 09:44:10;;;;;;;1.27;0.20;;;22.70;1.00;;;;;;5032393;28;20047;-63
2023/08/28 09:46:37;;;;;;;2.25;0.20;;;21.60;1.30;;;;;;5032266;28;20041;-64
2023/08/28 09:49:05;;;;;;;3.45;0.20;;;20.90;23.40;;;;;;5015159;28;20037;-63
2023/08/28 09:51:44;;;;;;;1.35;0.20;;;20.40;57.00;;;;;;5014604;28;20546;-63
2023/08/28 09:54:12;;;;;;;1.65;0.30;;;19.80;89.10;;;;;;5018048;28;20045;-63
2023/08/28 09:56:39;;;;;;;2.13;0.20;;;19.50;91.80;;;;;;5032746;28;20558;-63
2023/08/28 09:59:09;;;;;;;1.40;0.20;;;20.20;99.90;;;;;;5014319;28;20123;-63
2023/08/28 10:01:36;;;;;;;1.08;0.10;;;21.30;98.80;;;;;;5031927;28;20431;-63
2023/08/28 10:04:07;;;;;;;2.92;0.20;;;22.20;59.30;;;;;;4996624;28;20663;-64
2023/08/28 10:06:40;;;;;;;1.42;0.20;;;23.00;31.70;;;;;;5013538;28;20047;-63
2023/08/28 10:09:15;;;;;;;1.65;0.20;;;23.70;23.50;;;;;;5013268;28;20048;-63
2023/08/28 10:11:43;;;;;;;0.60;0.10;;;23.70;1.00;;;;;;5032373;28;20142;-63
2023/08/28 10:14:10;;;;;;;1.00;0.10;;;23.30;1.00;;;;;;5014545;28;20149;-63
2023/08/28 10:16:47;;;;;;;1.58;0.20;;;22.70;1.00;;;;;;5014274;28;20126;-64
2023/08/28 10:19:25;;;;;;;0.95;0.10;;;22.70;1.00;;;;;;5013689;28;20373;-63
2023/08/28 10:21:51;;;;;;;0.50;0.10;;;22.00;1.00;;;;;;5014186;28;20044;-65
2023/08/28 10:24:18;;;;;;;0.73;0.10;;;22.60;1.00;;;;;;5014865;28;20277;-65
2023/08/28 10:26:46;;;;;;;1.35;0.20;;;22.40;1.00;;;;;;4985869;28;20124;-65
2023/08/28 10:29:17;;;;;;;1.48;0.10;;;23.10;1.00;;;;;;5014421;28;20237;-65
2023/08/28 10:31:43;;;;;;;1.30;0.13;;;22.90;1.00;;;;;;5014987;28;20060;-66
2023/08/28 10:34:11;;;;;;;1.75;0.20;;;23.00;1.00;;;;;;5014666;28;20055;-66
2023/08/28 10:36:38;;;;;;;1.95;0.10;;;22.80;1.00;;;;;;5031791;28;20125;-66
2023/08/28 10:39:04;;;;;;;4.20;0.20;;;23.70;1.00;;;;;;5014437;28;20246;-65
2023/08/28 10:41:31;;;;;;;1.30;0.40;;;23.30;1.00;;;;;;4990532;28;20067;-65
2023/08/28 10:44:03;;;;;;;1.92;0.20;;;22.60;1.00;;;;;;4997751;28;20043;-66
2023/08/28 10:46:29;;;;;;;2.27;0.20;;;22.00;1.00;;;;;;5015851;28;20473;-65
2023/08/28 10:48:57;;;;;;;2.83;0.30;;;21.50;1.00;;;;;;5013790;28;20295;-66
2023/08/28 10:51:30;;;;;;;0.88;0.20;;;21.00;1.00;;;;;;5014043;28;20108;-66
2023/08/28 10:54:00;;;;;;;1.73;0.28;;;20.50;1.00;;;;;;5013442;28;20366;-65
2023/08/28 10:56:31;;;;;;;1.10;0.20;;;20.20;11.30;;;;;;4998088;28;20400;-64
2023/08/28 10:59:26;;;;;;;1.33;0.20;;;19.90;20.30;;;;;;4997756;28;20055;-65
2023/08/28 11:01:57;;;;;;;1.27;0.20;;;19.80;32.90;;;;;;4980878;28;20056;-64
2023/08/28 11:04:31;;;;;;;2.28;0.20;;;19.60;34.70;;;;;;5013742;28;20175;-64
2023/08/28 11:06:57;;;;;;;2.78;0.30;;;19.60;41.10;;;;;;5014101;28;20524;-65
2023/08/28 11:09:28;;;;;;;2.47;0.40;;;19.70;36.20;;;;;;4993665;28;20100;-63
2023/08/28 11:11:57;;;;;;;1.20;0.30;;;19.70;18.10;;;;;;5010715;28;20393;-64
2023/08/28 11:14:24;;;;;;;4.78;0.30;;;20.30;31.30;;;;;;5008855;28;20118;-63
2023/08/28 11:17:03;;;;;;;0.85;0.20;;;20.80;20.60;;;;;;5011526;28;20594;-63
2023/08/28 11:19:29;;;;;;;3.35;0.30;;;20.70;15.20;;;;;;4995575;28;20042;-64
2023/08/28 11:22:00;;;;;;;0.93;0.20;;;20.70;21.10;;;;;;5010704;28;20245;-64
2023/08/28 11:24:26;;;;;;;1.25;0.28;;;20.60;23.40;;;;;;5010184;28;20262;-64
2023/08/28 11:26:52;;;;;;;2.28;0.25;;;20.40;21.70;;;;;;5012560;28;20045;-63
2023/08/28 11:29:38;;;;;;;1.83;0.28;;;20.30;22.30;;;;;;5009976;28;20060;-64
2023/08/28 11:32:04;;;;;;;1.85;0.40;;;20.40;22.50;;;;;;4993869;28;20073;-65
2023/08/28 11:34:30;;;;;;;1.95;0.30;;;21.00;23.90;;;;;;5011286;28;20398;-64
2023/08/28 11:36:55;;;;;;;1.42;0.30;;;21.50;9.20;;;;;;5009909;28;20128;-65
2023/08/28 11:39:23;;;;;;;1.65;0.22;;;21.90;3.30;;;;;;5010114;28;20060;-64
2023/08/28 11:41:49;;;;;;;0.60;0.20;;;22.20;1.00;;;;;;5009760;28;20117;-65
2023/08/28 11:44:15;;;;;;;0.65;0.20;;;22.60;1.00;;;;;;5011336;28;20041;-64
2023/08/28 11:46:42;;;;;;;1.05;0.20;;;22.30;1.00;;;;;;5009972;28;20481;-64
2023/08/28 11:49:08;;;;;;;0.20;0.10;;;22.00;1.00;;;;;;4976938;28;20299;-65
2023/08/28 11:51:36;;;;;;;0.52;0.10;;;22.50;1.00;;;;;;5011573;28;20592;-64
2023/08/28 11:54:03;;;;;;;1.10;0.20;;;22.70;1.00;;;;;;5009302;28;20049;-64
2023/08/28 11:56:33;;;;;;;1.48;0.20;;;22.60;1.00;;;;;;5009612;28;20091;-64
2023/08/28 11:59:00;;;;;;;0.98;0.10;;;22.50;1.00;;;;;;4992167;28;20198;-65
2023/08/28 12:01:27;;;;;;;2.20;0.20;;;22.30;1.00;;;;;;5009368;28;20042;-64
2023/08/28 12:04:05;;;;;;;2.60;0.30;;;22.00;1.00;;;;;;4981493;28;20519;-64
2023/08/28 12:06:37;;;;;;;4.20;0.50;;;21.20;1.00;;;;;;4979112;28;20106;-64
2023/08/28 12:09:04;;;;;;;1.00;0.20;;;21.70;1.00;;;;;;5008562;28;20057;-64
2023/08/28 12:11:30;;;;;;;0.90;0.13;;;21.90;1.00;;;;;;5008351;28;20456;-64
2023/08/28 12:13:56;;;;;;;2.50;0.20;;;22.90;1.00;;;;;;5009283;28;20794;-64
2023/08/28 12:16:23;;;;;;;2.30;0.40;;;23.70;1.00;;;;;;5010251;28;20037;-64
2023/08/28 12:18:53;;;;;;;1.73;0.20;;;23.70;1.00;;;;;;5008654;28;20041;-63
2023/08/28 12:21:36;;;;;;;2.05;0.20;;;23.60;1.00;;;;;;5009546;28;20518;-65
2023/08/28 12:24:02;;;;;;;0.95;0.20;;;23.80;1.00;;;;;;5019380;28;20124;-64
2023/08/28 12:26:30;;;;;;;0.57;0.10;;;23.30;1.00;;;;;;5019694;28;20041;-64
2023/08/28 12:28:56;;;;;;;1.08;0.20;;;22.70;1.00;;;;;;5021552;28;20051;-65
2023/08/28 12:31:35;;;;;;;0.70;0.10;;;22.60;1.00;;;;;;5020066;28;20045;-64
2023/08/28 12:34:10;;;;;;;0.47;0.10;;;22.10;1.00;;;;;;5012890;28;20383;-65
2023/08/28 12:36:46;;;;;;;3.72;0.20;;;21.70;1.00;;;;;;5009456;28;20049;-65
2023/08/28 12:39:20;;;;;;;1.00;0.20;;;21.10;1.00;;;;;;5008670;28;20428;-66
2023/08/28 12:41:51;;;;;;;1.05;0.20;;;21.70;1.00;;;;;;5010733;28;20092;-66
2023/08/28 12:44:16;;;;;;;2.40;0.20;;;22.30;1.00;;;;;;4991641;28;20045;-67
2023/08/28 12:46:42;;;;;;;2.08;0.20;;;22.10;1.00;;;;;;4992975;28;20431;-66
2023/08/28 12:49:10;;;;;;;1.55;0.20;;;21.80;1.00;;;;;;4992302;28;20588;-66